Time;durP1;ratioP1;P1;durP2;ratioP2;P2;SDS_P1;SDS_P2;PMS_P1;PMS_P2;Temp;Humidity;BMP_temperature;BMP_pressure;BME280_temperature;BME280_humidity;BME280_pressure;Samples;Min_cycle;Max_cycle;Signal;HPM_P1;HPM_P2
2021/04/13 00:01:21;;;;;;;8.10;5.83;;;;;;;;;;5089562;28;20461;-96
2021/04/13 00:03:48;;;;;;;6.33;5.73;;;;;;;;;;5076099;28;20829;-93
2021/04/13 00:06:17;;;;;;;6.97;6.27;;;;;;;;;;5080903;28;20479;-91
2021/04/13 00:08:46;;;;;;;17.00;5.73;;;;;;;;;;5084262;28;20457;-94
2021/04/13 00:11:12;;;;;;;9.63;5.53;;;;;;;;;;5088657;28;20437;-91
2021/04/13 00:13:39;;;;;;;9.70;5.37;;;;;;;;;;5082064;28;20449;-91
2021/04/13 00:16:07;;;;;;;7.10;5.43;;;;;;;;;;5080909;28;20999;-92
2021/04/13 00:18:34;;;;;;;6.63;6.00;;;;;;;;;;5086594;28;20465;-93
2021/04/13 00:21:02;;;;;;;7.13;6.40;;;;;;;;;;5081265;28;20464;-93
2021/04/13 00:23:28;;;;;;;6.63;5.67;;;;;;;;;;5083394;28;20550;-91
2021/04/13 00:25:56;;;;;;;6.20;5.60;;;;;;;;;;5080085;28;20536;-94
2021/04/13 00:28:23;;;;;;;12.03;6.00;;;;;;;;;;5083474;28;20461;-94
2021/04/13 00:30:51;;;;;;;6.27;5.70;;;;;;;;;;5082138;28;20461;-94
2021/04/13 00:33:19;;;;;;;6.73;6.00;;;;;;;;;;5086563;28;20533;-96
2021/04/13 00:35:48;;;;;;;6.67;6.07;;;;;;;;;;5086772;28;20465;-95
2021/04/13 00:38:15;;;;;;;6.37;5.70;;;;;;;;;;5084939;28;20448;-94
2021/04/13 00:40:41;;;;;;;6.20;5.67;;;;;;;;;;5079850;28;20889;-92
2021/04/13 00:43:10;;;;;;;8.70;6.17;;;;;;;;;;5081526;28;20489;-92
2021/04/13 00:45:38;;;;;;;8.63;6.17;;;;;;;;;;5070810;28;20441;-92
2021/04/13 00:48:05;;;;;;;6.23;5.63;;;;;;;;;;5083740;28;20473;-94
2021/04/13 00:50:33;;;;;;;6.10;5.60;;;;;;;;;;5089814;28;20445;-96
2021/04/13 00:53:01;;;;;;;7.73;5.37;;;;;;;;;;5094939;28;20457;-96
2021/04/13 00:55:29;;;;;;;7.50;6.70;;;;;;;;;;5094963;28;20437;-96
2021/04/13 00:57:59;;;;;;;7.97;6.10;;;;;;;;;;5092677;28;20460;-95
2021/04/13 01:00:27;;;;;;;8.03;6.50;;;;;;;;;;5090302;28;20449;-96
2021/04/13 01:02:59;;;;;;;7.93;5.83;;;;;;;;;;5086840;28;20469;-96
2021/04/13 01:05:32;;;;;;;7.53;6.10;;;;;;;;;;5085084;28;20475;-94
2021/04/13 01:07:58;;;;;;;5.97;5.47;;;;;;;;;;5080423;28;20457;-92
2021/04/13 01:10:29;;;;;;;6.80;6.10;;;;;;;;;;5083252;28;20453;-91
2021/04/13 01:13:03;;;;;;;6.33;5.50;;;;;;;;;;5080307;28;21055;-92
2021/04/13 01:15:29;;;;;;;7.43;6.40;;;;;;;;;;5084720;28;20441;-95
2021/04/13 01:18:04;;;;;;;7.37;6.50;;;;;;;;;;5084026;28;20451;-96
2021/04/13 01:20:35;;;;;;;7.73;6.63;;;;;;;;;;5088645;28;20466;-95
2021/04/13 01:23:05;;;;;;;6.97;6.27;;;;;;;;;;5077356;28;20514;-96
2021/04/13 01:25:41;;;;;;;7.23;6.50;;;;;;;;;;5088408;28;20457;-96
2021/04/13 01:28:14;;;;;;;7.13;6.43;;;;;;;;;;5087198;28;20453;-96
2021/04/13 01:30:44;;;;;;;11.83;7.43;;;;;;;;;;5088663;28;20483;-96
2021/04/13 01:33:15;;;;;;;8.60;7.40;;;;;;;;;;5083349;28;20445;-95
2021/04/13 01:35:50;;;;;;;13.03;7.60;;;;;;;;;;5064008;22;20513;-96
2021/04/13 01:38:20;;;;;;;7.80;7.00;;;;;;;;;;5051128;28;20450;-96
2021/04/13 01:41:02;;;;;;;8.57;7.50;;;;;;;;;;5056120;28;20457;-96
2021/04/13 01:43:29;;;;;;;9.00;8.10;;;;;;;;;;5038956;28;20495;-95
2021/04/13 01:45:56;;;;;;;11.90;8.83;;;;;;;;;;5048465;28;20444;-96
2021/04/13 01:48:24;;;;;;;10.90;8.90;;;;;;;;;;5047925;28;20459;-96
2021/04/13 01:50:55;;;;;;;10.87;9.00;;;;;;;;;;5054084;28;20449;-95
2021/04/13 01:53:22;;;;;;;10.57;8.83;;;;;;;;;;5046834;28;20435;-95
2021/04/13 01:55:48;;;;;;;10.30;9.20;;;;;;;;;;5062332;28;20442;-94
2021/04/13 01:58:21;;;;;;;9.53;8.53;;;;;;;;;;5053994;28;20461;-95
2021/04/13 02:00:52;;;;;;;9.60;8.60;;;;;;;;;;5067160;28;20465;-96
2021/04/13 02:03:19;;;;;;;10.83;9.73;;;;;;;;;;5057108;28;20485;-95
2021/04/13 02:05:51;;;;;;;11.57;10.47;;;;;;;;;;5053025;28;20451;-95
2021/04/13 02:08:22;;;;;;;16.00;10.10;;;;;;;;;;5062704;28;20454;-96
2021/04/13 02:10:52;;;;;;;12.30;10.43;;;;;;;;;;5051893;28;20455;-96
2021/04/13 02:13:22;;;;;;;12.87;11.00;;;;;;;;;;5048251;28;20465;-94
2021/04/13 02:16:04;;;;;;;15.50;9.40;;;;;;;;;;5052131;28;20496;-96
2021/04/13 02:18:33;;;;;;;11.60;10.50;;;;;;;;;;5061800;28;20461;-93
2021/04/13 02:21:03;;;;;;;12.40;11.30;;;;;;;;;;5066204;28;20481;-92
2021/04/13 02:23:30;;;;;;;12.30;11.10;;;;;;;;;;5055440;28;20490;-93
2021/04/13 02:25:57;;;;;;;13.27;11.97;;;;;;;;;;5047992;28;20450;-92
2021/04/13 02:28:24;;;;;;;12.10;10.23;;;;;;;;;;5044772;28;20935;-91
2021/04/13 02:30:50;;;;;;;11.60;10.40;;;;;;;;;;5053892;28;20458;-92
2021/04/13 02:33:26;;;;;;;11.93;10.83;;;;;;;;;;5052023;28;20443;-92
2021/04/13 02:35:52;;;;;;;10.87;9.77;;;;;;;;;;5067337;28;20493;-95
2021/04/13 02:38:23;;;;;;;18.60;10.90;;;;;;;;;;5055403;28;20450;-92
2021/04/13 02:40:53;;;;;;;11.07;9.70;;;;;;;;;;5053656;28;20477;-93
2021/04/13 02:43:25;;;;;;;11.87;10.00;;;;;;;;;;5050966;28;20516;-91
2021/04/13 02:45:53;;;;;;;10.10;9.00;;;;;;;;;;5038176;28;20467;-91
2021/04/13 02:48:23;;;;;;;11.27;8.67;;;;;;;;;;5056687;28;20459;-91
2021/04/13 02:50:50;;;;;;;10.83;9.83;;;;;;;;;;5040005;28;20462;-90
2021/04/13 02:53:19;;;;;;;12.60;9.43;;;;;;;;;;5043527;28;20447;-92
2021/04/13 02:55:49;;;;;;;10.63;9.47;;;;;;;;;;5055676;28;20463;-94
2021/04/13 02:58:17;;;;;;;9.63;8.83;;;;;;;;;;5042032;28;20458;-96
2021/04/13 03:00:45;;;;;;;10.80;9.70;;;;;;;;;;5056350;28;20454;-94
2021/04/13 03:03:13;;;;;;;11.00;9.90;;;;;;;;;;5056250;28;20475;-96
2021/04/13 03:05:40;;;;;;;11.63;10.53;;;;;;;;;;5060650;28;20834;-96
2021/04/13 03:08:07;;;;;;;14.63;11.33;;;;;;;;;;5061903;28;20450;-96
2021/04/13 03:10:34;;;;;;;13.80;12.10;;;;;;;;;;5066385;28;20477;-96
2021/04/13 03:13:06;;;;;;;15.03;13.43;;;;;;;;;;5051694;28;20459;-93
2021/04/13 03:15:32;;;;;;;15.23;13.63;;;;;;;;;;5053842;28;20454;-96
2021/04/13 03:18:00;;;;;;;13.57;12.17;;;;;;;;;;5058814;28;20457;-96
2021/04/13 03:20:27;;;;;;;14.20;12.73;;;;;;;;;;5039621;28;20488;-93
2021/04/13 03:22:54;;;;;;;17.70;12.60;;;;;;;;;;5057437;28;20453;-95
2021/04/13 03:25:23;;;;;;;16.10;12.23;;;;;;;;;;5051492;28;20450;-95
2021/04/13 03:27:51;;;;;;;16.07;13.10;;;;;;;;;;5050363;28;20962;-94
2021/04/13 03:30:21;;;;;;;15.00;13.50;;;;;;;;;;5057669;28;20458;-92
2021/04/13 03:32:50;;;;;;;16.07;14.37;;;;;;;;;;5054864;28;21426;-94
2021/04/13 03:35:16;;;;;;;15.73;14.10;;;;;;;;;;5057002;28;20473;-94
2021/04/13 03:37:43;;;;;;;19.20;16.23;;;;;;;;;;5048264;28;20470;-92
2021/04/13 03:40:13;;;;;;;21.07;15.80;;;;;;;;;;5054414;28;20458;-93
2021/04/13 03:42:39;;;;;;;17.43;15.63;;;;;;;;;;5049080;28;20458;-92
2021/04/13 03:45:07;;;;;;;19.33;14.93;;;;;;;;;;5063171;28;20439;-95
2021/04/13 03:47:35;;;;;;;21.97;18.20;;;;;;;;;;5058120;28;20458;-94
2021/04/13 03:50:03;;;;;;;20.10;18.00;;;;;;;;;;5053271;28;20460;-95
2021/04/13 03:52:31;;;;;;;22.57;19.40;;;;;;;;;;5036511;28;20447;-95
2021/04/13 03:54:58;;;;;;;20.57;15.90;;;;;;;;;;5051358;28;20503;-95
2021/04/13 03:57:28;;;;;;;18.93;15.20;;;;;;;;;;5055438;28;20480;-95
2021/04/13 03:59:55;;;;;;;17.77;14.40;;;;;;;;;;5048745;28;20485;-96
2021/04/13 04:02:21;;;;;;;16.57;14.93;;;;;;;;;;5048227;28;20509;-96
2021/04/13 04:04:48;;;;;;;20.70;15.40;;;;;;;;;;5047493;28;20489;-96
2021/04/13 04:07:19;;;;;;;17.43;15.73;;;;;;;;;;5048071;28;20454;-96
2021/04/13 04:09:46;;;;;;;18.90;16.57;;;;;;;;;;5066955;28;20582;-96
2021/04/13 04:12:16;;;;;;;21.83;19.53;;;;;;;;;;5071886;28;20477;-96
2021/04/13 04:14:54;;;;;;;23.23;20.83;;;;;;;;;;5068063;28;20465;-96
2021/04/13 04:17:20;;;;;;;23.73;20.10;;;;;;;;;;5049679;28;20454;-96
2021/04/13 04:19:54;;;;;;;23.47;20.10;;;;;;;;;;5049363;28;20442;-96
2021/04/13 04:22:23;;;;;;;23.57;20.50;;;;;;;;;;5056197;28;20442;-96
2021/04/13 04:24:49;;;;;;;23.70;19.17;;;;;;;;;;5056081;28;20503;-96
2021/04/13 04:27:19;;;;;;;21.27;18.73;;;;;;;;;;5058117;28;20452;-95
2021/04/13 04:29:46;;;;;;;21.33;19.03;;;;;;;;;;5055686;28;20463;-96
2021/04/13 04:32:36;;;;;;;20.73;17.40;;;;;;;;;;5056421;28;20455;-96
2021/04/13 04:35:04;;;;;;;22.30;19.47;;;;;;;;;;5066874;28;20508;-96
2021/04/13 04:37:37;;;;;;;21.63;18.87;;;;;;;;;;5062626;28;20451;-96
2021/04/13 04:40:11;;;;;;;18.77;16.80;;;;;;;;;;5053258;28;20453;-95
2021/04/13 04:42:38;;;;;;;20.73;18.63;;;;;;;;;;5048649;28;20516;-95
2021/04/13 04:45:14;;;;;;;22.57;16.97;;;;;;;;;;5048370;28;20498;-94
2021/04/13 04:47:40;;;;;;;18.77;16.60;;;;;;;;;;5061814;28;20456;-96
2021/04/13 04:50:09;;;;;;;19.37;17.00;;;;;;;;;;5047820;28;20447;-96
2021/04/13 04:52:36;;;;;;;24.20;17.23;;;;;;;;;;5055452;28;21001;-95
2021/04/13 04:55:03;;;;;;;19.40;16.70;;;;;;;;;;5053320;28;20459;-96
2021/04/13 04:57:29;;;;;;;18.90;16.87;;;;;;;;;;5054036;28;20446;-96
2021/04/13 04:59:55;;;;;;;20.70;15.97;;;;;;;;;;5053245;28;20454;-92
2021/04/13 05:02:21;;;;;;;19.80;17.70;;;;;;;;;;5051919;28;20454;-94
2021/04/13 05:04:47;;;;;;;20.43;18.33;;;;;;;;;;5046419;28;20490;-91
2021/04/13 05:07:14;;;;;;;18.70;16.80;;;;;;;;;;5058100;28;20464;-91
2021/04/13 05:09:40;;;;;;;18.93;17.00;;;;;;;;;;5054077;28;20458;-92
2021/04/13 05:12:07;;;;;;;18.40;16.50;;;;;;;;;;5051886;28;20526;-91
2021/04/13 05:14:33;;;;;;;17.93;15.70;;;;;;;;;;5061825;28;20481;-91
2021/04/13 05:16:59;;;;;;;19.57;17.67;;;;;;;;;;5060359;28;20446;-91
2021/04/13 05:19:25;;;;;;;18.73;16.73;;;;;;;;;;5053315;28;20454;-91
2021/04/13 05:21:51;;;;;;;19.03;17.17;;;;;;;;;;5042630;28;20459;-92
2021/04/13 05:24:18;;;;;;;18.80;16.63;;;;;;;;;;5055011;28;20512;-91
2021/04/13 05:26:44;;;;;;;20.37;16.77;;;;;;;;;;5049083;28;20447;-92
2021/04/13 05:29:10;;;;;;;18.93;16.93;;;;;;;;;;5049093;28;20806;-91
2021/04/13 05:31:37;;;;;;;20.47;16.27;;;;;;;;;;5048110;28;20458;-91
2021/04/13 05:34:03;;;;;;;17.07;15.37;;;;;;;;;;5048922;28;20971;-92
2021/04/13 05:36:31;;;;;;;18.97;17.07;;;;;;;;;;5052464;28;20458;-91
2021/04/13 05:38:58;;;;;;;18.63;16.70;;;;;;;;;;5048288;28;20596;-92
2021/04/13 05:41:25;;;;;;;19.03;17.03;;;;;;;;;;5052338;28;20500;-92
2021/04/13 05:43:51;;;;;;;17.67;15.77;;;;;;;;;;5052931;28;20495;-91
2021/04/13 05:46:18;;;;;;;20.97;16.20;;;;;;;;;;5053511;28;20446;-92
2021/04/13 05:48:44;;;;;;;17.70;15.90;;;;;;;;;;5056531;28;20459;-92
2021/04/13 05:51:10;;;;;;;16.53;14.83;;;;;;;;;;5051659;28;20463;-91
2021/04/13 05:53:36;;;;;;;17.20;15.30;;;;;;;;;;5052355;28;20455;-92
2021/04/13 05:56:02;;;;;;;17.47;15.77;;;;;;;;;;5051559;28;20446;-92
2021/04/13 05:58:32;;;;;;;16.73;15.07;;;;;;;;;;5052365;28;20440;-91
2021/04/13 06:01:01;;;;;;;16.90;15.17;;;;;;;;;;5053485;28;20442;-91
2021/04/13 06:03:27;;;;;;;25.03;18.70;;;;;;;;;;5052204;28;20481;-91
2021/04/13 06:05:55;;;;;;;22.23;19.87;;;;;;;;;;5053540;28;20440;-91
2021/04/13 06:08:21;;;;;;;25.67;22.30;;;;;;;;;;5053907;28;20450;-91
2021/04/13 06:10:47;;;;;;;29.33;26.00;;;;;;;;;;5052372;28;20460;-92
2021/04/13 06:13:13;;;;;;;32.63;28.43;;;;;;;;;;5043585;28;20484;-90
2021/04/13 06:15:40;;;;;;;31.93;27.50;;;;;;;;;;5052056;28;20450;-91
2021/04/13 06:18:06;;;;;;;28.63;25.60;;;;;;;;;;5052577;28;20449;-91
2021/04/13 06:20:32;;;;;;;26.27;23.57;;;;;;;;;;5051417;28;20454;-91
2021/04/13 06:22:58;;;;;;;30.47;24.47;;;;;;;;;;5051662;28;20472;-90
2021/04/13 06:25:26;;;;;;;27.00;21.40;;;;;;;;;;5052394;28;20451;-91
2021/04/13 06:27:52;;;;;;;25.37;22.47;;;;;;;;;;5051354;28;20439;-92
2021/04/13 06:30:20;;;;;;;28.30;24.87;;;;;;;;;;5051019;28;20447;-92
2021/04/13 06:32:47;;;;;;;28.13;25.10;;;;;;;;;;5045977;28;20958;-91
2021/04/13 06:35:13;;;;;;;28.70;25.43;;;;;;;;;;5055901;28;20490;-91
2021/04/13 06:37:40;;;;;;;29.53;24.73;;;;;;;;;;5056745;28;20449;-92
2021/04/13 06:40:07;;;;;;;29.60;24.77;;;;;;;;;;5057623;28;20468;-91
2021/04/13 06:42:44;;;;;;;28.97;24.50;;;;;;;;;;5054565;28;20457;-91
2021/04/13 06:45:23;;;;;;;29.90;25.87;;;;;;;;;;5053039;28;20481;-92
2021/04/13 06:48:22;;;;;;;41.67;35.40;;;;;;;;;;5053259;28;20446;-92
2021/04/13 06:50:56;;;;;;;31.70;28.37;;;;;;;;;;4956476;29;20455;-93
2021/04/13 06:53:26;;;;;;;25.07;22.37;;;;;;;;;;4955144;29;20458;-91
2021/04/13 06:56:12;;;;;;;25.50;21.13;;;;;;;;;;5006649;28;20457;-91
2021/04/13 06:58:45;;;;;;;24.83;22.23;;;;;;;;;;5049153;28;20454;-94
2021/04/13 07:01:14;;;;;;;27.33;24.27;;;;;;;;;;5064809;28;20454;-91
2021/04/13 07:03:44;;;;;;;23.23;20.80;;;;;;;;;;5058828;28;20513;-93
2021/04/13 07:06:14;;;;;;;22.37;19.97;;;;;;;;;;5055804;28;20472;-93
2021/04/13 07:08:41;;;;;;;20.50;18.40;;;;;;;;;;5062512;28;20450;-89
2021/04/13 07:11:14;;;;;;;22.37;20.07;;;;;;;;;;5057844;28;20468;-93
2021/04/13 07:13:44;;;;;;;21.80;19.50;;;;;;;;;;5059034;28;20465;-92
2021/04/13 07:16:15;;;;;;;22.30;19.87;;;;;;;;;;5061546;28;20450;-92
2021/04/13 07:35:27;;;;;;;17.50;14.30;;;;;;;;;;2447412;22;20775;-96
2021/04/13 07:37:54;;;;;;;17.50;15.70;;;;;;;;;;5091152;28;20465;-96
2021/04/13 07:40:22;;;;;;;18.03;15.83;;;;;;;;;;5095411;28;20452;-96
2021/04/13 07:42:51;;;;;;;15.97;14.37;;;;;;;;;;5085209;28;20881;-96
2021/04/13 07:45:32;;;;;;;19.20;14.80;;;;;;;;;;5074470;28;20477;-96
2021/04/13 07:48:09;;;;;;;15.07;13.67;;;;;;;;;;5088910;28;20459;-94
2021/04/13 07:50:49;;;;;;;16.03;14.17;;;;;;;;;;5089126;28;20556;-95
2021/04/13 07:53:18;;;;;;;17.17;15.30;;;;;;;;;;5091571;28;20453;-95
2021/04/13 07:55:49;;;;;;;18.33;15.03;;;;;;;;;;5092576;28;20453;-96
2021/04/13 07:58:21;;;;;;;18.93;16.70;;;;;;;;;;5095997;28;20471;-94
2021/04/13 08:00:50;;;;;;;19.87;17.70;;;;;;;;;;5092744;28;20445;-96
2021/04/13 08:03:20;;;;;;;18.70;16.80;;;;;;;;;;5094386;28;20440;-94
2021/04/13 08:05:48;;;;;;;21.47;18.50;;;;;;;;;;5091469;28;20441;-93
2021/04/13 08:11:09;;;;;;;21.47;19.20;;;;;;;;;;5091504;28;20464;-93
2021/04/13 08:13:36;;;;;;;21.17;18.70;;;;;;;;;;5074010;28;20445;-96
2021/04/13 08:21:41;;;;;;;22.23;19.93;;;;;;;;;;5093516;28;20441;-96
2021/04/13 08:24:15;;;;;;;23.33;20.90;;;;;;;;;;5087794;28;20490;-93
2021/04/13 08:26:44;;;;;;;23.27;20.90;;;;;;;;;;5091284;28;20451;-94
2021/04/13 08:29:13;;;;;;;23.23;19.70;;;;;;;;;;5085812;28;20469;-95
2021/04/13 08:34:33;;;;;;;19.60;17.60;;;;;;;;;;5070666;28;20463;-94
2021/04/13 08:37:06;;;;;;;19.83;17.70;;;;;;;;;;5082941;28;21124;-94
2021/04/13 08:39:37;;;;;;;18.40;16.50;;;;;;;;;;5074598;28;20509;-91
2021/04/13 08:42:07;;;;;;;22.43;18.40;;;;;;;;;;5082667;28;21003;-95
2021/04/13 08:44:37;;;;;;;20.70;18.70;;;;;;;;;;5083129;28;20500;-91
2021/04/13 08:47:06;;;;;;;18.60;16.60;;;;;;;;;;5081507;28;21156;-92
2021/04/13 08:49:49;;;;;;;19.57;17.47;;;;;;;;;;5082999;28;20472;-95
2021/04/13 08:52:28;;;;;;;21.63;19.63;;;;;;;;;;5080661;28;21058;-95
2021/04/13 08:55:03;;;;;;;21.40;19.00;;;;;;;;;;5084478;28;20445;-92
2021/04/13 08:57:32;;;;;;;22.57;18.83;;;;;;;;;;5085540;28;20459;-90
2021/04/13 09:00:00;;;;;;;20.73;18.53;;;;;;;;;;5083134;28;20449;-92
2021/04/13 09:02:27;;;;;;;23.27;20.00;;;;;;;;;;5085844;28;20456;-93
2021/04/13 09:05:00;;;;;;;23.33;20.80;;;;;;;;;;5083206;28;20478;-92
2021/04/13 09:07:28;;;;;;;19.73;17.73;;;;;;;;;;5086320;28;20491;-93
2021/04/13 09:09:55;;;;;;;21.30;19.00;;;;;;;;;;5084097;28;20448;-93
2021/04/13 09:12:30;;;;;;;21.10;18.90;;;;;;;;;;5074407;28;20498;-92
2021/04/13 09:15:04;;;;;;;19.73;17.40;;;;;;;;;;5075549;28;20464;-92
2021/04/13 09:17:32;;;;;;;20.37;18.27;;;;;;;;;;5080949;28;20457;-93
2021/04/13 09:20:02;;;;;;;18.23;16.40;;;;;;;;;;5082460;28;20437;-94
2021/04/13 09:22:32;;;;;;;17.53;15.73;;;;;;;;;;5082047;28;20441;-93
2021/04/13 09:25:11;;;;;;;19.50;17.50;;;;;;;;;;5085264;28;20492;-91
2021/04/13 09:27:41;;;;;;;18.40;16.50;;;;;;;;;;5087213;28;20444;-91
2021/04/13 09:30:22;;;;;;;19.50;17.40;;;;;;;;;;5074452;28;20492;-92
2021/04/13 09:32:49;;;;;;;18.47;15.87;;;;;;;;;;5075204;28;21254;-92
2021/04/13 09:35:35;;;;;;;18.20;16.30;;;;;;;;;;5084302;28;20458;-93
2021/04/13 09:38:07;;;;;;;16.47;14.77;;;;;;;;;;5082920;28;20535;-94
2021/04/13 09:40:38;;;;;;;20.00;15.80;;;;;;;;;;5081151;28;20441;-96
2021/04/13 09:43:20;;;;;;;15.60;14.00;;;;;;;;;;5079179;28;20465;-96
2021/04/13 09:45:57;;;;;;;17.80;16.00;;;;;;;;;;5077737;28;20556;-96
2021/04/13 09:48:42;;;;;;;17.03;15.30;;;;;;;;;;5081741;28;20445;-95
2021/04/13 09:51:15;;;;;;;17.83;15.97;;;;;;;;;;5077326;28;20464;-96
2021/04/13 09:53:51;;;;;;;17.73;15.83;;;;;;;;;;5084592;28;20480;-96
2021/04/13 09:56:36;;;;;;;16.67;14.97;;;;;;;;;;5081740;28;20489;-95
2021/04/13 09:59:20;;;;;;;17.10;15.40;;;;;;;;;;5075020;28;20441;-96
2021/04/13 10:01:50;;;;;;;18.83;15.30;;;;;;;;;;5064907;28;20461;-94
2021/04/13 10:04:35;;;;;;;20.33;16.70;;;;;;;;;;5081496;28;20485;-94
2021/04/13 10:07:20;;;;;;;19.73;17.60;;;;;;;;;;5081298;28;20837;-95
2021/04/13 10:09:46;;;;;;;21.10;18.50;;;;;;;;;;5081758;28;20452;-95
2021/04/13 10:12:30;;;;;;;22.80;20.27;;;;;;;;;;5081495;28;20456;-94
2021/04/13 10:15:22;;;;;;;17.30;15.70;;;;;;;;;;5077690;28;20449;-95
2021/04/13 10:17:59;;;;;;;14.23;12.83;;;;;;;;;;5061312;28;20449;-93
2021/04/13 10:20:30;;;;;;;13.20;12.00;;;;;;;;;;5075825;28;20488;-94
2021/04/13 10:23:23;;;;;;;13.33;11.43;;;;;;;;;;5083378;28;20441;-94
2021/04/13 10:26:25;;;;;;;16.63;15.00;;;;;;;;;;5083944;28;20441;-94
2021/04/13 10:29:14;;;;;;;14.33;13.03;;;;;;;;;;5081829;28;20459;-96
2021/04/13 10:32:04;;;;;;;13.43;12.13;;;;;;;;;;5068425;28;20512;-95
2021/04/13 10:35:00;;;;;;;14.20;12.73;;;;;;;;;;5081692;28;20449;-95
2021/04/13 10:37:53;;;;;;;12.67;11.37;;;;;;;;;;4981234;28;20478;-96
2021/04/13 10:40:34;;;;;;;12.83;11.23;;;;;;;;;;5079306;28;20449;-96
2021/04/13 10:43:26;;;;;;;16.63;14.90;;;;;;;;;;5094834;28;20453;-95
2021/04/13 10:46:20;;;;;;;11.80;10.67;;;;;;;;;;5094865;28;20440;-96
2021/04/13 10:49:21;;;;;;;12.70;11.47;;;;;;;;;;5418734;22;20592;-96
2021/04/13 10:52:08;;;;;;;11.83;10.83;;;;;;;;;;5001281;28;20483;-95
2021/04/13 10:54:53;;;;;;;10.03;9.23;;;;;;;;;;5025550;28;20444;-95
2021/04/13 10:57:50;;;;;;;11.63;10.30;;;;;;;;;;5046205;23;21425;-96
2021/04/13 11:00:27;;;;;;;10.73;9.73;;;;;;;;;;5032904;23;20474;-96
2021/04/13 11:03:11;;;;;;;10.97;9.97;;;;;;;;;;5037605;28;20465;-96
2021/04/13 11:05:55;;;;;;;10.00;9.10;;;;;;;;;;5043341;28;20527;-96
2021/04/13 11:08:39;;;;;;;10.40;8.90;;;;;;;;;;5045838;28;20443;-96
2021/04/13 11:11:35;;;;;;;10.27;9.00;;;;;;;;;;5045433;28;20458;-96
2021/04/13 11:14:34;;;;;;;10.03;8.90;;;;;;;;;;5040526;28;20446;-95
2021/04/13 11:17:13;;;;;;;9.40;8.53;;;;;;;;;;5043461;28;20443;-95
2021/04/13 11:19:45;;;;;;;8.57;7.90;;;;;;;;;;5045985;28;20461;-96
2021/04/13 11:22:18;;;;;;;10.40;9.30;;;;;;;;;;5052023;28;20479;-96
2021/04/13 11:25:01;;;;;;;10.13;9.17;;;;;;;;;;5052047;28;20474;-96
2021/04/13 11:27:42;;;;;;;10.60;9.50;;;;;;;;;;5051821;28;20450;-96
2021/04/13 11:30:31;;;;;;;9.07;8.00;;;;;;;;;;5021084;28;20458;-95
2021/04/13 11:33:25;;;;;;;10.20;9.30;;;;;;;;;;5054652;28;20455;-96
2021/04/13 11:36:03;;;;;;;8.60;7.80;;;;;;;;;;4991169;28;20443;-96
2021/04/13 11:38:36;;;;;;;9.50;8.70;;;;;;;;;;5041215;28;20455;-96
2021/04/13 11:41:19;;;;;;;8.83;8.03;;;;;;;;;;5049435;28;20473;-96
2021/04/13 11:43:57;;;;;;;9.70;8.90;;;;;;;;;;5046359;28;20483;-96
2021/04/13 11:46:31;;;;;;;9.67;8.77;;;;;;;;;;5039989;28;20517;-96
2021/04/13 11:49:01;;;;;;;9.13;8.27;;;;;;;;;;5038514;28;20474;-96
2021/04/13 11:51:33;;;;;;;8.90;8.10;;;;;;;;;;5038993;28;20451;-96
2021/04/13 11:54:22;;;;;;;7.80;7.10;;;;;;;;;;5041860;28;20459;-96
2021/04/13 11:56:58;;;;;;;8.30;7.60;;;;;;;;;;5045851;28;20453;-94
2021/04/13 11:59:25;;;;;;;8.47;7.57;;;;;;;;;;5043913;28;20459;-95
2021/04/13 12:01:55;;;;;;;7.47;6.83;;;;;;;;;;5044053;28;20439;-95
2021/04/13 12:04:23;;;;;;;7.30;6.60;;;;;;;;;;5045549;28;20521;-95
2021/04/13 12:07:14;;;;;;;9.30;7.13;;;;;;;;;;5056609;28;20443;-96
2021/04/13 12:09:48;;;;;;;11.40;7.23;;;;;;;;;;5048960;28;20459;-96
2021/04/13 12:12:38;;;;;;;6.50;5.90;;;;;;;;;;5049628;28;20490;-96
2021/04/13 12:15:19;;;;;;;7.40;6.40;;;;;;;;;;5034520;28;20466;-96
2021/04/13 12:17:45;;;;;;;6.47;5.87;;;;;;;;;;5041551;28;20444;-96
2021/04/13 12:20:27;;;;;;;6.43;5.83;;;;;;;;;;5044822;28;20473;-96
2021/04/13 12:22:54;;;;;;;7.47;6.53;;;;;;;;;;5045989;28;20457;-95
2021/04/13 12:25:38;;;;;;;6.80;6.20;;;;;;;;;;5042356;28;20486;-96
2021/04/13 12:28:05;;;;;;;5.97;5.40;;;;;;;;;;5043935;28;20448;-96
2021/04/13 12:30:32;;;;;;;6.57;5.37;;;;;;;;;;5045540;28;21866;-96
2021/04/13 12:32:59;;;;;;;5.63;5.13;;;;;;;;;;5037000;28;20469;-96
2021/04/13 12:35:53;;;;;;;5.70;5.20;;;;;;;;;;5050392;28;20462;-96
2021/04/13 12:38:45;;;;;;;7.90;5.20;;;;;;;;;;5032895;28;20487;-96
2021/04/13 12:41:16;;;;;;;5.97;5.47;;;;;;;;;;5042974;28;20426;-96
2021/04/13 12:43:45;;;;;;;5.23;4.73;;;;;;;;;;5049033;28;20433;-96
2021/04/13 12:46:19;;;;;;;6.50;4.97;;;;;;;;;;5061070;28;20409;-93
2021/04/13 12:48:46;;;;;;;8.30;5.53;;;;;;;;;;5066566;23;20440;-96
2021/04/13 12:51:15;;;;;;;6.67;6.03;;;;;;;;;;5065746;28;20447;-95
2021/04/13 12:53:41;;;;;;;6.23;5.70;;;;;;;;;;5069283;28;21067;-95
2021/04/13 12:56:09;;;;;;;7.70;5.90;;;;;;;;;;5069552;28;20430;-95
2021/04/13 12:58:37;;;;;;;6.80;6.13;;;;;;;;;;5068116;28;20530;-96
2021/04/13 13:01:04;;;;;;;7.80;7.00;;;;;;;;;;5063484;28;20451;-93
2021/04/13 13:03:34;;;;;;;7.80;7.17;;;;;;;;;;5066190;28;20461;-96
2021/04/13 13:06:12;;;;;;;8.80;7.67;;;;;;;;;;5066045;28;20446;-96
2021/04/13 13:08:38;;;;;;;11.67;8.73;;;;;;;;;;5065297;28;20461;-94
2021/04/13 13:11:07;;;;;;;10.00;8.60;;;;;;;;;;5066921;28;20438;-94
2021/04/13 13:13:35;;;;;;;10.77;9.07;;;;;;;;;;5063454;28;20450;-92
2021/04/13 13:16:10;;;;;;;14.50;9.53;;;;;;;;;;5062591;28;20461;-93
2021/04/13 13:18:41;;;;;;;9.63;8.60;;;;;;;;;;5066603;28;20457;-96
2021/04/13 13:21:10;;;;;;;12.80;9.10;;;;;;;;;;5071949;28;20469;-96
2021/04/13 13:23:39;;;;;;;9.10;7.63;;;;;;;;;;5060233;28;20434;-96
2021/04/13 13:26:12;;;;;;;8.50;7.07;;;;;;;;;;5065783;28;20466;-96
2021/04/13 13:28:42;;;;;;;6.77;6.17;;;;;;;;;;5056877;28;20458;-95
2021/04/13 13:31:09;;;;;;;9.90;6.80;;;;;;;;;;5063071;28;20485;-94
2021/04/13 13:33:36;;;;;;;8.40;7.57;;;;;;;;;;5061858;28;20446;-95
2021/04/13 13:36:02;;;;;;;9.67;7.77;;;;;;;;;;5062479;28;20509;-94
2021/04/13 13:38:28;;;;;;;11.17;7.90;;;;;;;;;;5062724;28;20450;-95
2021/04/13 13:40:55;;;;;;;8.20;7.13;;;;;;;;;;5062784;28;20446;-96
2021/04/13 13:43:22;;;;;;;8.53;6.90;;;;;;;;;;5065851;28;20458;-96
2021/04/13 13:45:49;;;;;;;8.40;7.17;;;;;;;;;;5068679;28;20485;-96
2021/04/13 13:48:27;;;;;;;9.37;8.50;;;;;;;;;;5065611;28;20459;-96
2021/04/13 13:53:50;;;;;;;8.70;7.90;;;;;;;;;;5060487;28;20450;-96
2021/04/13 13:56:28;;;;;;;11.53;8.80;;;;;;;;;;5067754;28;20453;-96
2021/04/13 13:59:19;;;;;;;8.27;7.47;;;;;;;;;;5067674;28;20450;-96
2021/04/13 14:02:08;;;;;;;8.37;7.60;;;;;;;;;;5050919;28;20457;-96
2021/04/13 14:04:37;;;;;;;9.30;8.40;;;;;;;;;;5067249;28;20490;-96
2021/04/13 14:07:03;;;;;;;10.90;8.67;;;;;;;;;;5057308;28;20457;-96
2021/04/13 14:09:29;;;;;;;9.40;8.17;;;;;;;;;;5067275;28;20707;-96
2021/04/13 14:11:56;;;;;;;9.50;8.37;;;;;;;;;;5043988;28;21150;-96
2021/04/13 14:14:36;;;;;;;8.53;7.80;;;;;;;;;;5068976;28;20469;-96
2021/04/13 14:17:12;;;;;;;9.73;8.17;;;;;;;;;;5068874;28;20442;-93
2021/04/13 14:19:41;;;;;;;9.03;7.80;;;;;;;;;;5070185;22;20453;-96
2021/04/13 14:22:19;;;;;;;7.70;7.00;;;;;;;;;;5054639;28;20453;-96
2021/04/13 14:24:46;;;;;;;10.70;7.43;;;;;;;;;;5068927;28;20474;-96
2021/04/13 14:30:02;;;;;;;10.30;8.80;;;;;;;;;;5082161;22;20476;-96
2021/04/13 14:32:29;;;;;;;8.70;7.90;;;;;;;;;;5076566;28;20469;-97
2021/04/13 14:34:57;;;;;;;10.47;8.00;;;;;;;;;;5052051;28;20525;-96
2021/04/13 14:37:35;;;;;;;9.50;8.50;;;;;;;;;;5074869;28;20444;-96
2021/04/13 14:40:04;;;;;;;10.57;9.57;;;;;;;;;;5134228;22;20561;-96
2021/04/13 14:42:30;;;;;;;9.70;8.80;;;;;;;;;;5048589;28;20451;-94
2021/04/13 14:45:00;;;;;;;10.30;9.00;;;;;;;;;;5045532;28;20474;-96
2021/04/13 14:47:27;;;;;;;10.10;9.10;;;;;;;;;;5046550;28;20462;-95
2021/04/13 14:49:55;;;;;;;8.93;8.03;;;;;;;;;;5051082;28;20454;-94
2021/04/13 14:52:23;;;;;;;10.80;8.53;;;;;;;;;;5055888;28;20438;-96
2021/04/13 14:54:50;;;;;;;11.63;10.13;;;;;;;;;;5056424;28;20477;-96
2021/04/13 14:57:19;;;;;;;10.50;8.40;;;;;;;;;;5060560;28;20427;-96
2021/04/13 14:59:45;;;;;;;12.80;8.87;;;;;;;;;;5059533;28;20450;-95
2021/04/13 15:02:13;;;;;;;10.17;9.17;;;;;;;;;;5057195;28;20442;-96
2021/04/13 15:07:22;;;;;;;13.73;9.37;;;;;;;;;;5051764;28;20436;-96
2021/04/13 15:10:04;;;;;;;10.40;9.40;;;;;;;;;;5054669;28;21012;-96
2021/04/13 15:12:56;;;;;;;11.10;8.57;;;;;;;;;;5104361;23;20523;-96
2021/04/13 15:15:22;;;;;;;13.33;8.80;;;;;;;;;;5061308;28;20478;-96
2021/04/13 15:17:49;;;;;;;12.20;9.27;;;;;;;;;;5052930;28;20441;-96
2021/04/13 15:20:17;;;;;;;13.97;11.20;;;;;;;;;;5077505;28;20446;-96
2021/04/13 15:22:44;;;;;;;11.80;9.70;;;;;;;;;;5069212;28;20454;-95
2021/04/13 15:25:11;;;;;;;10.47;9.40;;;;;;;;;;5065779;28;20485;-93
2021/04/13 15:27:37;;;;;;;11.93;9.20;;;;;;;;;;5066250;28;20454;-95
2021/04/13 15:30:04;;;;;;;10.50;8.20;;;;;;;;;;5066100;28;20457;-94